sensor_id;sensor_type;location;lat;lon;timestamp;P1;durP1;ratioP1;P2;durP2;ratioP2
10269;SDS011;70826;50.930;5.334;2024-02-21T00:01:14;50.03;;;47.05;;
10269;SDS011;70826;50.930;5.334;2024-02-21T00:03:43;49.05;;;46.15;;
10269;SDS011;70826;50.930;5.334;2024-02-21T00:06:09;47.88;;;45.10;;
10269;SDS011;70826;50.930;5.334;2024-02-21T00:08:37;50.90;;;47.88;;
10269;SDS011;70826;50.930;5.334;2024-02-21T00:11:02;50.80;;;47.95;;
10269;SDS011;70826;50.930;5.334;2024-02-21T00:13:28;50.72;;;47.75;;
10269;SDS011;70826;50.930;5.334;2024-02-21T00:15:54;52.08;;;49.13;;
10269;SDS011;70826;50.930;5.334;2024-02-21T00:18:20;51.17;;;48.15;;
10269;SDS011;70826;50.930;5.334;2024-02-21T00:20:46;54.92;;;51.60;;
10269;SDS011;70826;50.930;5.334;2024-02-21T00:23:11;50.75;;;47.80;;
10269;SDS011;70826;50.930;5.334;2024-02-21T00:25:39;53.20;;;49.97;;
10269;SDS011;70826;50.930;5.334;2024-02-21T00:28:05;51.35;;;48.30;;
10269;SDS011;70826;50.930;5.334;2024-02-21T00:30:33;51.13;;;48.08;;
10269;SDS011;70826;50.930;5.334;2024-02-21T00:33:03;52.15;;;49.10;;
10269;SDS011;70826;50.930;5.334;2024-02-21T00:35:30;50.47;;;47.40;;
10269;SDS011;70826;50.930;5.334;2024-02-21T00:38:06;51.50;;;48.38;;
10269;SDS011;70826;50.930;5.334;2024-02-21T00:40:34;53.60;;;50.28;;
10269;SDS011;70826;50.930;5.334;2024-02-21T00:43:00;53.15;;;49.90;;
10269;SDS011;70826;50.930;5.334;2024-02-21T00:45:28;55.22;;;52.08;;
10269;SDS011;70826;50.930;5.334;2024-02-21T00:47:53;53.53;;;50.45;;
10269;SDS011;70826;50.930;5.334;2024-02-21T00:50:19;54.50;;;51.17;;
10269;SDS011;70826;50.930;5.334;2024-02-21T00:52:45;52.75;;;49.67;;
10269;SDS011;70826;50.930;5.334;2024-02-21T00:55:10;54.83;;;51.53;;
10269;SDS011;70826;50.930;5.334;2024-02-21T00:57:38;53.28;;;49.97;;
10269;SDS011;70826;50.930;5.334;2024-02-21T01:00:04;52.45;;;49.25;;
10269;SDS011;70826;50.930;5.334;2024-02-21T01:02:30;52.03;;;48.88;;
10269;SDS011;70826;50.930;5.334;2024-02-21T01:04:58;54.83;;;51.67;;
10269;SDS011;70826;50.930;5.334;2024-02-21T01:07:24;55.83;;;52.63;;
10269;SDS011;70826;50.930;5.334;2024-02-21T01:09:50;56.85;;;53.53;;
10269;SDS011;70826;50.930;5.334;2024-02-21T01:12:18;57.13;;;53.67;;
10269;SDS011;70826;50.930;5.334;2024-02-21T01:14:44;53.92;;;50.70;;
10269;SDS011;70826;50.930;5.334;2024-02-21T01:17:11;54.38;;;51.17;;
10269;SDS011;70826;50.930;5.334;2024-02-21T01:19:37;54.25;;;51.03;;
10269;SDS011;70826;50.930;5.334;2024-02-21T01:22:03;54.30;;;51.08;;
10269;SDS011;70826;50.930;5.334;2024-02-21T01:24:29;56.40;;;53.20;;
10269;SDS011;70826;50.930;5.334;2024-02-21T01:26:55;56.38;;;52.95;;
10269;SDS011;70826;50.930;5.334;2024-02-21T01:29:20;57.17;;;53.83;;
10269;SDS011;70826;50.930;5.334;2024-02-21T01:31:46;59.58;;;56.13;;
10269;SDS011;70826;50.930;5.334;2024-02-21T01:34:12;56.42;;;53.17;;
10269;SDS011;70826;50.930;5.334;2024-02-21T01:36:38;59.67;;;56.15;;
10269;SDS011;70826;50.930;5.334;2024-02-21T01:39:04;56.70;;;53.15;;
10269;SDS011;70826;50.930;5.334;2024-02-21T01:41:31;58.50;;;55.05;;
10269;SDS011;70826;50.930;5.334;2024-02-21T01:43:57;56.47;;;53.13;;
10269;SDS011;70826;50.930;5.334;2024-02-21T01:46:23;59.25;;;55.83;;
10269;SDS011;70826;50.930;5.334;2024-02-21T01:48:53;57.75;;;54.40;;
10269;SDS011;70826;50.930;5.334;2024-02-21T01:51:19;59.00;;;55.50;;
10269;SDS011;70826;50.930;5.334;2024-02-21T01:53:45;59.70;;;56.28;;
10269;SDS011;70826;50.930;5.334;2024-02-21T01:56:12;58.58;;;55.17;;
10269;SDS011;70826;50.930;5.334;2024-02-21T01:58:39;59.75;;;56.35;;
10269;SDS011;70826;50.930;5.334;2024-02-21T02:01:07;60.22;;;56.78;;
10269;SDS011;70826;50.930;5.334;2024-02-21T02:03:33;60.90;;;57.25;;
10269;SDS011;70826;50.930;5.334;2024-02-21T02:05:59;62.00;;;58.38;;
10269;SDS011;70826;50.930;5.334;2024-02-21T02:08:25;62.90;;;59.22;;
10269;SDS011;70826;50.930;5.334;2024-02-21T02:10:53;59.38;;;55.90;;
10269;SDS011;70826;50.930;5.334;2024-02-21T02:13:19;60.78;;;57.17;;
10269;SDS011;70826;50.930;5.334;2024-02-21T02:15:45;62.42;;;58.72;;
10269;SDS011;70826;50.930;5.334;2024-02-21T02:18:15;63.75;;;60.00;;
10269;SDS011;70826;50.930;5.334;2024-02-21T02:20:43;61.85;;;58.20;;
10269;SDS011;70826;50.930;5.334;2024-02-21T02:23:10;63.35;;;59.63;;
10269;SDS011;70826;50.930;5.334;2024-02-21T02:25:59;61.42;;;57.90;;
10269;SDS011;70826;50.930;5.334;2024-02-21T02:28:26;61.40;;;57.85;;
10269;SDS011;70826;50.930;5.334;2024-02-21T02:30:51;61.80;;;58.03;;
10269;SDS011;70826;50.930;5.334;2024-02-21T02:33:18;64.78;;;60.97;;
10269;SDS011;70826;50.930;5.334;2024-02-21T02:35:43;61.88;;;58.22;;
10269;SDS011;70826;50.930;5.334;2024-02-21T02:38:09;64.25;;;60.58;;
10269;SDS011;70826;50.930;5.334;2024-02-21T02:40:38;62.72;;;59.17;;
10269;SDS011;70826;50.930;5.334;2024-02-21T02:43:05;65.38;;;61.65;;
10269;SDS011;70826;50.930;5.334;2024-02-21T02:45:33;62.05;;;58.45;;
10269;SDS011;70826;50.930;5.334;2024-02-21T02:48:02;65.53;;;61.67;;
10269;SDS011;70826;50.930;5.334;2024-02-21T02:50:27;65.50;;;61.70;;
10269;SDS011;70826;50.930;5.334;2024-02-21T02:52:53;67.10;;;63.22;;
10269;SDS011;70826;50.930;5.334;2024-02-21T02:55:19;68.72;;;64.82;;
10269;SDS011;70826;50.930;5.334;2024-02-21T02:57:45;68.07;;;64.03;;
10269;SDS011;70826;50.930;5.334;2024-02-21T03:00:11;65.85;;;62.05;;
10269;SDS011;70826;50.930;5.334;2024-02-21T03:02:38;66.80;;;62.97;;
10269;SDS011;70826;50.930;5.334;2024-02-21T03:05:15;68.68;;;64.65;;
10269;SDS011;70826;50.930;5.334;2024-02-21T03:07:42;65.85;;;61.97;;
10269;SDS011;70826;50.930;5.334;2024-02-21T03:10:09;63.65;;;59.88;;
10269;SDS011;70826;50.930;5.334;2024-02-21T03:12:35;69.93;;;65.95;;
10269;SDS011;70826;50.930;5.334;2024-02-21T03:15:01;66.50;;;62.63;;
10269;SDS011;70826;50.930;5.334;2024-02-21T03:17:27;60.28;;;56.80;;
10269;SDS011;70826;50.930;5.334;2024-02-21T03:19:53;58.83;;;55.45;;
10269;SDS011;70826;50.930;5.334;2024-02-21T03:22:22;57.10;;;53.70;;
10269;SDS011;70826;50.930;5.334;2024-02-21T03:24:47;52.28;;;49.33;;
10269;SDS011;70826;50.930;5.334;2024-02-21T03:27:13;49.65;;;46.75;;
10269;SDS011;70826;50.930;5.334;2024-02-21T03:29:39;48.55;;;45.83;;
10269;SDS011;70826;50.930;5.334;2024-02-21T03:32:04;48.15;;;45.35;;
10269;SDS011;70826;50.930;5.334;2024-02-21T03:34:30;47.75;;;44.95;;
10269;SDS011;70826;50.930;5.334;2024-02-21T03:36:58;48.97;;;46.08;;
10269;SDS011;70826;50.930;5.334;2024-02-21T03:39:25;50.65;;;47.67;;
10269;SDS011;70826;50.930;5.334;2024-02-21T03:41:52;42.50;;;40.08;;
10269;SDS011;70826;50.930;5.334;2024-02-21T03:44:18;43.83;;;41.20;;
10269;SDS011;70826;50.930;5.334;2024-02-21T03:46:44;44.22;;;41.72;;
10269;SDS011;70826;50.930;5.334;2024-02-21T03:49:10;45.05;;;42.47;;
10269;SDS011;70826;50.930;5.334;2024-02-21T03:51:36;42.55;;;40.15;;
10269;SDS011;70826;50.930;5.334;2024-02-21T03:54:02;45.15;;;42.55;;
10269;SDS011;70826;50.930;5.334;2024-02-21T03:56:28;44.58;;;42.03;;
10269;SDS011;70826;50.930;5.334;2024-02-21T03:58:53;42.75;;;40.35;;
10269;SDS011;70826;50.930;5.334;2024-02-21T04:01:21;43.00;;;40.45;;
10269;SDS011;70826;50.930;5.334;2024-02-21T04:03:47;44.75;;;42.15;;
10269;SDS011;70826;50.930;5.334;2024-02-21T04:06:12;44.50;;;42.00;;
10269;SDS011;70826;50.930;5.334;2024-02-21T04:08:38;45.28;;;42.67;;
10269;SDS011;70826;50.930;5.334;2024-02-21T04:11:04;45.47;;;42.97;;
10269;SDS011;70826;50.930;5.334;2024-02-21T04:13:29;44.97;;;42.45;;
10269;SDS011;70826;50.930;5.334;2024-02-21T04:15:55;46.33;;;43.72;;
10269;SDS011;70826;50.930;5.334;2024-02-21T04:18:21;46.10;;;43.45;;
10269;SDS011;70826;50.930;5.334;2024-02-21T04:20:47;44.83;;;42.33;;
10269;SDS011;70826;50.930;5.334;2024-02-21T04:23:13;44.85;;;42.33;;
10269;SDS011;70826;50.930;5.334;2024-02-21T04:25:39;47.03;;;44.42;;
10269;SDS011;70826;50.930;5.334;2024-02-21T04:28:05;47.05;;;44.40;;
10269;SDS011;70826;50.930;5.334;2024-02-21T04:30:30;45.45;;;42.80;;
10269;SDS011;70826;50.930;5.334;2024-02-21T04:32:56;45.42;;;42.83;;
10269;SDS011;70826;50.930;5.334;2024-02-21T04:35:24;45.22;;;42.65;;
10269;SDS011;70826;50.930;5.334;2024-02-21T04:37:50;43.85;;;41.40;;
10269;SDS011;70826;50.930;5.334;2024-02-21T04:40:15;46.55;;;43.90;;
10269;SDS011;70826;50.930;5.334;2024-02-21T04:42:42;46.10;;;43.53;;
10269;SDS011;70826;50.930;5.334;2024-02-21T04:45:10;47.03;;;44.38;;
10269;SDS011;70826;50.930;5.334;2024-02-21T04:47:35;48.00;;;45.30;;
10269;SDS011;70826;50.930;5.334;2024-02-21T04:50:04;45.50;;;42.95;;
10269;SDS011;70826;50.930;5.334;2024-02-21T04:52:31;47.83;;;45.03;;
10269;SDS011;70826;50.930;5.334;2024-02-21T04:54:56;48.78;;;45.88;;
10269;SDS011;70826;50.930;5.334;2024-02-21T04:57:22;46.67;;;44.05;;
10269;SDS011;70826;50.930;5.334;2024-02-21T04:59:48;47.97;;;45.25;;
10269;SDS011;70826;50.930;5.334;2024-02-21T05:02:13;46.25;;;43.65;;
10269;SDS011;70826;50.930;5.334;2024-02-21T05:04:39;47.70;;;44.97;;
10269;SDS011;70826;50.930;5.334;2024-02-21T05:07:07;45.80;;;43.13;;
10269;SDS011;70826;50.930;5.334;2024-02-21T05:09:33;48.08;;;45.40;;
10269;SDS011;70826;50.930;5.334;2024-02-21T05:11:59;49.80;;;46.95;;
10269;SDS011;70826;50.930;5.334;2024-02-21T05:14:27;48.97;;;46.25;;
10269;SDS011;70826;50.930;5.334;2024-02-21T05:16:55;53.00;;;49.95;;
10269;SDS011;70826;50.930;5.334;2024-02-21T05:19:21;47.28;;;44.67;;
10269;SDS011;70826;50.930;5.334;2024-02-21T05:21:49;51.92;;;48.92;;
10269;SDS011;70826;50.930;5.334;2024-02-21T05:24:14;50.05;;;47.17;;
10269;SDS011;70826;50.930;5.334;2024-02-21T05:26:42;50.13;;;47.28;;
10269;SDS011;70826;50.930;5.334;2024-02-21T05:29:08;48.65;;;45.92;;
10269;SDS011;70826;50.930;5.334;2024-02-21T05:34:18;47.78;;;45.13;;
10269;SDS011;70826;50.930;5.334;2024-02-21T05:36:44;51.22;;;48.28;;
10269;SDS011;70826;50.930;5.334;2024-02-21T05:39:09;48.47;;;45.80;;
10269;SDS011;70826;50.930;5.334;2024-02-21T05:41:35;48.38;;;45.63;;
10269;SDS011;70826;50.930;5.334;2024-02-21T05:44:01;51.60;;;48.67;;
10269;SDS011;70826;50.930;5.334;2024-02-21T05:46:26;49.58;;;46.75;;
10269;SDS011;70826;50.930;5.334;2024-02-21T05:48:52;51.35;;;48.45;;
10269;SDS011;70826;50.930;5.334;2024-02-21T05:51:18;51.60;;;48.72;;
10269;SDS011;70826;50.930;5.334;2024-02-21T05:53:46;50.35;;;47.45;;
10269;SDS011;70826;50.930;5.334;2024-02-21T05:56:14;48.90;;;46.20;;
10269;SDS011;70826;50.930;5.334;2024-02-21T05:58:43;51.67;;;48.72;;
10269;SDS011;70826;50.930;5.334;2024-02-21T06:01:12;50.45;;;47.67;;
10269;SDS011;70826;50.930;5.334;2024-02-21T06:03:40;52.42;;;49.42;;
10269;SDS011;70826;50.930;5.334;2024-02-21T06:06:08;51.60;;;48.72;;
10269;SDS011;70826;50.930;5.334;2024-02-21T06:08:33;48.63;;;45.90;;
10269;SDS011;70826;50.930;5.334;2024-02-21T06:10:59;50.80;;;47.95;;
10269;SDS011;70826;50.930;5.334;2024-02-21T06:13:25;52.53;;;49.40;;
10269;SDS011;70826;50.930;5.334;2024-02-21T06:15:50;51.17;;;48.33;;
10269;SDS011;70826;50.930;5.334;2024-02-21T06:18:19;52.67;;;49.72;;
10269;SDS011;70826;50.930;5.334;2024-02-21T06:20:45;53.85;;;50.85;;
10269;SDS011;70826;50.930;5.334;2024-02-21T06:23:16;48.75;;;46.10;;
10269;SDS011;70826;50.930;5.334;2024-02-21T06:25:45;53.72;;;50.65;;
10269;SDS011;70826;50.930;5.334;2024-02-21T06:28:12;53.67;;;50.72;;
10269;SDS011;70826;50.930;5.334;2024-02-21T06:30:38;52.63;;;49.67;;
10269;SDS011;70826;50.930;5.334;2024-02-21T06:33:05;52.08;;;49.08;;
10269;SDS011;70826;50.930;5.334;2024-02-21T06:35:30;48.80;;;46.10;;
10269;SDS011;70826;50.930;5.334;2024-02-21T06:37:56;50.13;;;47.30;;
10269;SDS011;70826;50.930;5.334;2024-02-21T06:40:24;51.45;;;48.47;;
10269;SDS011;70826;50.930;5.334;2024-02-21T06:42:52;52.17;;;49.10;;
10269;SDS011;70826;50.930;5.334;2024-02-21T06:45:17;47.45;;;44.88;;
10269;SDS011;70826;50.930;5.334;2024-02-21T06:47:43;48.20;;;45.55;;
10269;SDS011;70826;50.930;5.334;2024-02-21T06:50:09;51.05;;;48.17;;
10269;SDS011;70826;50.930;5.334;2024-02-21T06:52:35;48.90;;;46.20;;
10269;SDS011;70826;50.930;5.334;2024-02-21T06:55:01;51.95;;;49.13;;
10269;SDS011;70826;50.930;5.334;2024-02-21T06:57:28;49.35;;;46.63;;
10269;SDS011;70826;50.930;5.334;2024-02-21T06:59:54;50.83;;;48.03;;
10269;SDS011;70826;50.930;5.334;2024-02-21T07:02:27;49.15;;;46.50;;
10269;SDS011;70826;50.930;5.334;2024-02-21T07:04:53;51.05;;;48.22;;
10269;SDS011;70826;50.930;5.334;2024-02-21T07:07:19;51.25;;;48.10;;
10269;SDS011;70826;50.930;5.334;2024-02-21T07:09:49;53.10;;;50.05;;
10269;SDS011;70826;50.930;5.334;2024-02-21T07:12:15;51.65;;;48.78;;
10269;SDS011;70826;50.930;5.334;2024-02-21T07:14:42;51.85;;;49.00;;
10269;SDS011;70826;50.930;5.334;2024-02-21T07:17:11;51.47;;;48.60;;
10269;SDS011;70826;50.930;5.334;2024-02-21T07:19:39;50.33;;;47.47;;
10269;SDS011;70826;50.930;5.334;2024-02-21T07:22:05;50.92;;;48.10;;
10269;SDS011;70826;50.930;5.334;2024-02-21T07:24:30;51.42;;;48.55;;
10269;SDS011;70826;50.930;5.334;2024-02-21T07:26:56;50.92;;;48.05;;
10269;SDS011;70826;50.930;5.334;2024-02-21T07:29:22;53.20;;;50.22;;
10269;SDS011;70826;50.930;5.334;2024-02-21T07:31:48;51.22;;;48.25;;
10269;SDS011;70826;50.930;5.334;2024-02-21T07:34:13;56.45;;;53.25;;
10269;SDS011;70826;50.930;5.334;2024-02-21T07:36:40;65.60;;;61.42;;
10269;SDS011;70826;50.930;5.334;2024-02-21T07:39:09;65.10;;;61.42;;
10269;SDS011;70826;50.930;5.334;2024-02-21T07:41:35;80.95;;;75.55;;
10269;SDS011;70826;50.930;5.334;2024-02-21T07:44:00;82.55;;;77.90;;
10269;SDS011;70826;50.930;5.334;2024-02-21T07:46:26;63.42;;;59.70;;
10269;SDS011;70826;50.930;5.334;2024-02-21T07:48:51;66.90;;;63.15;;
10269;SDS011;70826;50.930;5.334;2024-02-21T07:51:17;65.35;;;61.00;;
10269;SDS011;70826;50.930;5.334;2024-02-21T07:53:45;65.15;;;61.40;;
10269;SDS011;70826;50.930;5.334;2024-02-21T07:56:15;62.05;;;58.55;;
10269;SDS011;70826;50.930;5.334;2024-02-21T07:58:41;67.22;;;63.17;;
10269;SDS011;70826;50.930;5.334;2024-02-21T08:01:07;64.03;;;60.20;;
10269;SDS011;70826;50.930;5.334;2024-02-21T08:03:36;54.10;;;50.80;;
10269;SDS011;70826;50.930;5.334;2024-02-21T08:06:03;53.90;;;50.70;;
10269;SDS011;70826;50.930;5.334;2024-02-21T08:08:39;55.65;;;52.35;;
10269;SDS011;70826;50.930;5.334;2024-02-21T08:11:09;46.72;;;44.13;;
10269;SDS011;70826;50.930;5.334;2024-02-21T08:13:35;43.03;;;40.40;;
10269;SDS011;70826;50.930;5.334;2024-02-21T08:16:00;39.45;;;37.30;;
10269;SDS011;70826;50.930;5.334;2024-02-21T08:18:31;38.90;;;36.78;;
10269;SDS011;70826;50.930;5.334;2024-02-21T08:21:05;34.63;;;32.78;;
10269;SDS011;70826;50.930;5.334;2024-02-21T08:23:31;40.95;;;38.63;;
10269;SDS011;70826;50.930;5.334;2024-02-21T08:25:57;41.80;;;39.33;;
10269;SDS011;70826;50.930;5.334;2024-02-21T08:28:30;42.50;;;40.08;;
10269;SDS011;70826;50.930;5.334;2024-02-21T08:30:55;33.28;;;31.23;;
10269;SDS011;70826;50.930;5.334;2024-02-21T08:33:21;30.92;;;29.02;;
10269;SDS011;70826;50.930;5.334;2024-02-21T08:35:50;35.40;;;33.15;;
10269;SDS011;70826;50.930;5.334;2024-02-21T08:38:19;40.90;;;38.50;;
10269;SDS011;70826;50.930;5.334;2024-02-21T08:40:44;43.72;;;41.10;;
10269;SDS011;70826;50.930;5.334;2024-02-21T08:43:12;44.40;;;41.83;;
10269;SDS011;70826;50.930;5.334;2024-02-21T08:45:40;42.55;;;40.05;;
10269;SDS011;70826;50.930;5.334;2024-02-21T08:48:08;43.28;;;40.70;;
10269;SDS011;70826;50.930;5.334;2024-02-21T08:50:39;43.78;;;41.13;;
10269;SDS011;70826;50.930;5.334;2024-02-21T08:53:04;44.28;;;41.60;;
10269;SDS011;70826;50.930;5.334;2024-02-21T08:55:32;37.35;;;35.28;;
10269;SDS011;70826;50.930;5.334;2024-02-21T08:58:03;33.25;;;31.15;;
10269;SDS011;70826;50.930;5.334;2024-02-21T09:00:31;30.15;;;28.42;;
10269;SDS011;70826;50.930;5.334;2024-02-21T09:02:56;30.42;;;28.63;;
10269;SDS011;70826;50.930;5.334;2024-02-21T09:05:22;29.60;;;27.92;;
10269;SDS011;70826;50.930;5.334;2024-02-21T09:07:50;27.17;;;25.55;;
10269;SDS011;70826;50.930;5.334;2024-02-21T09:10:18;29.52;;;27.85;;
10269;SDS011;70826;50.930;5.334;2024-02-21T09:12:43;29.40;;;27.80;;
10269;SDS011;70826;50.930;5.334;2024-02-21T09:15:09;28.33;;;26.60;;
10269;SDS011;70826;50.930;5.334;2024-02-21T09:17:37;27.52;;;25.98;;
10269;SDS011;70826;50.930;5.334;2024-02-21T09:20:05;27.05;;;25.58;;
10269;SDS011;70826;50.930;5.334;2024-02-21T09:22:32;27.95;;;26.27;;
10269;SDS011;70826;50.930;5.334;2024-02-21T09:25:01;28.38;;;26.67;;
10269;SDS011;70826;50.930;5.334;2024-02-21T09:27:28;26.85;;;25.25;;
10269;SDS011;70826;50.930;5.334;2024-02-21T09:29:54;29.63;;;27.95;;
10269;SDS011;70826;50.930;5.334;2024-02-21T09:32:19;26.65;;;25.08;;
10269;SDS011;70826;50.930;5.334;2024-02-21T09:34:45;27.85;;;26.23;;
10269;SDS011;70826;50.930;5.334;2024-02-21T09:37:13;28.63;;;27.02;;
10269;SDS011;70826;50.930;5.334;2024-02-21T09:39:38;26.33;;;24.83;;
10269;SDS011;70826;50.930;5.334;2024-02-21T09:42:07;27.88;;;26.35;;
10269;SDS011;70826;50.930;5.334;2024-02-21T09:44:37;27.30;;;25.77;;
10269;SDS011;70826;50.930;5.334;2024-02-21T09:49:49;27.92;;;26.33;;
10269;SDS011;70826;50.930;5.334;2024-02-21T09:52:17;25.92;;;24.50;;
10269;SDS011;70826;50.930;5.334;2024-02-21T09:54:44;26.45;;;25.02;;
10269;SDS011;70826;50.930;5.334;2024-02-21T09:57:17;26.27;;;24.77;;
10269;SDS011;70826;50.930;5.334;2024-02-21T09:59:43;26.25;;;24.77;;
10269;SDS011;70826;50.930;5.334;2024-02-21T10:02:11;23.88;;;22.48;;
10269;SDS011;70826;50.930;5.334;2024-02-21T10:04:39;27.42;;;25.88;;
10269;SDS011;70826;50.930;5.334;2024-02-21T10:07:07;28.63;;;27.00;;
10269;SDS011;70826;50.930;5.334;2024-02-21T10:09:36;31.27;;;29.50;;
10269;SDS011;70826;50.930;5.334;2024-02-21T10:12:13;32.75;;;30.90;;
10269;SDS011;70826;50.930;5.334;2024-02-21T10:14:44;32.33;;;30.50;;
10269;SDS011;70826;50.930;5.334;2024-02-21T10:17:15;36.38;;;34.22;;
10269;SDS011;70826;50.930;5.334;2024-02-21T10:19:45;35.78;;;33.65;;
10269;SDS011;70826;50.930;5.334;2024-02-21T10:22:12;37.55;;;35.35;;
10269;SDS011;70826;50.930;5.334;2024-02-21T10:24:42;38.50;;;36.33;;
10269;SDS011;70826;50.930;5.334;2024-02-21T10:27:10;38.92;;;36.67;;
10269;SDS011;70826;50.930;5.334;2024-02-21T10:29:36;39.28;;;36.92;;
10269;SDS011;70826;50.930;5.334;2024-02-21T10:34:36;43.50;;;40.92;;
10269;SDS011;70826;50.930;5.334;2024-02-21T10:37:06;42.20;;;39.72;;
10269;SDS011;70826;50.930;5.334;2024-02-21T10:39:34;42.28;;;39.72;;
10269;SDS011;70826;50.930;5.334;2024-02-21T10:42:03;31.05;;;29.27;;
10269;SDS011;70826;50.930;5.334;2024-02-21T10:44:33;35.65;;;33.67;;
10269;SDS011;70826;50.930;5.334;2024-02-21T10:47:03;37.65;;;35.53;;
10269;SDS011;70826;50.930;5.334;2024-02-21T10:49:39;38.10;;;35.88;;
10269;SDS011;70826;50.930;5.334;2024-02-21T10:52:08;39.17;;;36.83;;
10269;SDS011;70826;50.930;5.334;2024-02-21T10:54:48;41.13;;;38.70;;
10269;SDS011;70826;50.930;5.334;2024-02-21T10:57:18;40.10;;;37.80;;
10269;SDS011;70826;50.930;5.334;2024-02-21T10:59:45;43.00;;;40.35;;
10269;SDS011;70826;50.930;5.334;2024-02-21T11:02:13;44.60;;;41.95;;
10269;SDS011;70826;50.930;5.334;2024-02-21T11:04:42;44.50;;;41.88;;
10269;SDS011;70826;50.930;5.334;2024-02-21T11:07:09;47.53;;;44.75;;
10269;SDS011;70826;50.930;5.334;2024-02-21T11:09:38;45.08;;;42.42;;
10269;SDS011;70826;50.930;5.334;2024-02-21T11:12:06;45.17;;;42.63;;
10269;SDS011;70826;50.930;5.334;2024-02-21T11:14:32;45.58;;;42.92;;
10269;SDS011;70826;50.930;5.334;2024-02-21T11:17:02;47.95;;;45.05;;
10269;SDS011;70826;50.930;5.334;2024-02-21T11:19:29;48.45;;;45.55;;
10269;SDS011;70826;50.930;5.334;2024-02-21T11:21:56;47.35;;;44.47;;
10269;SDS011;70826;50.930;5.334;2024-02-21T11:24:32;47.25;;;44.47;;
10269;SDS011;70826;50.930;5.334;2024-02-21T11:27:09;43.42;;;40.85;;
10269;SDS011;70826;50.930;5.334;2024-02-21T11:29:46;44.30;;;41.70;;
10269;SDS011;70826;50.930;5.334;2024-02-21T11:32:25;44.67;;;42.08;;
10269;SDS011;70826;50.930;5.334;2024-02-21T11:35:02;42.72;;;40.20;;
10269;SDS011;70826;50.930;5.334;2024-02-21T11:37:29;48.58;;;45.78;;
10269;SDS011;70826;50.930;5.334;2024-02-21T11:39:58;46.15;;;43.42;;
10269;SDS011;70826;50.930;5.334;2024-02-21T11:42:24;45.92;;;43.20;;
10269;SDS011;70826;50.930;5.334;2024-02-21T11:44:54;43.13;;;40.58;;
10269;SDS011;70826;50.930;5.334;2024-02-21T11:47:23;41.97;;;39.53;;
10269;SDS011;70826;50.930;5.334;2024-02-21T11:49:49;44.42;;;41.78;;
10269;SDS011;70826;50.930;5.334;2024-02-21T11:52:19;42.17;;;39.70;;
10269;SDS011;70826;50.930;5.334;2024-02-21T11:54:50;40.38;;;38.03;;
10269;SDS011;70826;50.930;5.334;2024-02-21T11:57:19;46.58;;;43.83;;
10269;SDS011;70826;50.930;5.334;2024-02-21T11:59:45;47.53;;;44.72;;
10269;SDS011;70826;50.930;5.334;2024-02-21T12:02:14;43.05;;;40.60;;
10269;SDS011;70826;50.930;5.334;2024-02-21T12:04:39;45.95;;;43.35;;
10269;SDS011;70826;50.930;5.334;2024-02-21T12:07:09;40.63;;;38.28;;
10269;SDS011;70826;50.930;5.334;2024-02-21T12:09:37;43.95;;;41.47;;
10269;SDS011;70826;50.930;5.334;2024-02-21T12:12:03;42.72;;;40.30;;
10269;SDS011;70826;50.930;5.334;2024-02-21T12:14:30;44.10;;;41.55;;
10269;SDS011;70826;50.930;5.334;2024-02-21T12:16:57;44.10;;;41.55;;
10269;SDS011;70826;50.930;5.334;2024-02-21T12:19:24;40.45;;;38.13;;
10269;SDS011;70826;50.930;5.334;2024-02-21T12:21:49;40.05;;;37.80;;
10269;SDS011;70826;50.930;5.334;2024-02-21T12:26:45;45.92;;;43.22;;
10269;SDS011;70826;50.930;5.334;2024-02-21T12:29:13;42.58;;;40.08;;
10269;SDS011;70826;50.930;5.334;2024-02-21T12:31:38;41.50;;;39.10;;
10269;SDS011;70826;50.930;5.334;2024-02-21T12:34:07;39.72;;;37.47;;
10269;SDS011;70826;50.930;5.334;2024-02-21T12:36:35;42.88;;;40.25;;
10269;SDS011;70826;50.930;5.334;2024-02-21T12:39:08;41.10;;;38.72;;
10269;SDS011;70826;50.930;5.334;2024-02-21T12:41:34;41.03;;;38.67;;
10269;SDS011;70826;50.930;5.334;2024-02-21T12:44:06;41.13;;;38.72;;
10269;SDS011;70826;50.930;5.334;2024-02-21T12:46:36;43.17;;;40.67;;
10269;SDS011;70826;50.930;5.334;2024-02-21T12:49:02;41.42;;;39.05;;
10269;SDS011;70826;50.930;5.334;2024-02-21T12:51:29;45.50;;;42.65;;
10269;SDS011;70826;50.930;5.334;2024-02-21T12:53:58;56.53;;;53.15;;
10269;SDS011;70826;50.930;5.334;2024-02-21T12:56:28;61.00;;;57.25;;
10269;SDS011;70826;50.930;5.334;2024-02-21T12:58:54;65.82;;;61.55;;
10269;SDS011;70826;50.930;5.334;2024-02-21T13:01:20;66.93;;;62.92;;
10269;SDS011;70826;50.930;5.334;2024-02-21T13:03:46;60.03;;;56.42;;
10269;SDS011;70826;50.930;5.334;2024-02-21T13:06:19;67.57;;;63.78;;
10269;SDS011;70826;50.930;5.334;2024-02-21T13:08:47;60.92;;;57.33;;
10269;SDS011;70826;50.930;5.334;2024-02-21T13:11:13;69.70;;;65.47;;
10269;SDS011;70826;50.930;5.334;2024-02-21T13:13:38;68.72;;;64.60;;
10269;SDS011;70826;50.930;5.334;2024-02-21T13:16:04;67.53;;;63.33;;
10269;SDS011;70826;50.930;5.334;2024-02-21T13:18:34;60.17;;;56.75;;
10269;SDS011;70826;50.930;5.334;2024-02-21T13:21:02;69.15;;;64.80;;
10269;SDS011;70826;50.930;5.334;2024-02-21T13:23:29;65.20;;;61.20;;
10269;SDS011;70826;50.930;5.334;2024-02-21T13:25:54;74.43;;;70.10;;
10269;SDS011;70826;50.930;5.334;2024-02-21T13:28:20;69.57;;;65.55;;
10269;SDS011;70826;50.930;5.334;2024-02-21T13:30:48;48.63;;;45.72;;
10269;SDS011;70826;50.930;5.334;2024-02-21T13:33:13;51.60;;;48.45;;
10269;SDS011;70826;50.930;5.334;2024-02-21T13:35:39;43.42;;;40.92;;
10269;SDS011;70826;50.930;5.334;2024-02-21T13:38:05;41.40;;;39.13;;
10269;SDS011;70826;50.930;5.334;2024-02-21T13:40:30;40.72;;;38.53;;
10269;SDS011;70826;50.930;5.334;2024-02-21T13:42:56;37.80;;;35.67;;
10269;SDS011;70826;50.930;5.334;2024-02-21T13:45:22;40.58;;;38.28;;
10269;SDS011;70826;50.930;5.334;2024-02-21T13:47:47;42.40;;;40.08;;
10269;SDS011;70826;50.930;5.334;2024-02-21T13:50:13;41.17;;;38.75;;
10269;SDS011;70826;50.930;5.334;2024-02-21T13:52:42;39.72;;;37.55;;
10269;SDS011;70826;50.930;5.334;2024-02-21T13:55:08;28.02;;;26.38;;
10269;SDS011;70826;50.930;5.334;2024-02-21T13:57:34;24.42;;;23.08;;
10269;SDS011;70826;50.930;5.334;2024-02-21T14:00:01;23.92;;;22.60;;
10269;SDS011;70826;50.930;5.334;2024-02-21T14:02:28;24.15;;;22.80;;
10269;SDS011;70826;50.930;5.334;2024-02-21T14:04:53;22.50;;;21.20;;
10269;SDS011;70826;50.930;5.334;2024-02-21T14:07:19;22.27;;;21.02;;
10269;SDS011;70826;50.930;5.334;2024-02-21T14:09:47;22.73;;;21.48;;
10269;SDS011;70826;50.930;5.334;2024-02-21T14:12:16;22.00;;;20.75;;
10269;SDS011;70826;50.930;5.334;2024-02-21T14:14:45;22.35;;;21.20;;
10269;SDS011;70826;50.930;5.334;2024-02-21T14:17:13;22.98;;;21.60;;
10269;SDS011;70826;50.930;5.334;2024-02-21T14:19:39;23.65;;;22.38;;
10269;SDS011;70826;50.930;5.334;2024-02-21T14:22:07;23.15;;;21.90;;
10269;SDS011;70826;50.930;5.334;2024-02-21T14:24:32;22.40;;;21.15;;
10269;SDS011;70826;50.930;5.334;2024-02-21T14:27:03;22.60;;;21.40;;
10269;SDS011;70826;50.930;5.334;2024-02-21T14:29:29;24.10;;;22.73;;
10269;SDS011;70826;50.930;5.334;2024-02-21T14:31:57;23.65;;;22.35;;